Time;durP1;ratioP1;P1;durP2;ratioP2;P2;SDS_P1;SDS_P2;PMS_P1;PMS_P2;Temp;Humidity;BMP_temperature;BMP_pressure;BME280_temperature;BME280_humidity;BME280_pressure;Samples;Min_cycle;Max_cycle;Signal;HPM_P1;HPM_P2
2024/01/24 00:02:14;;;;;;;48.05;22.80;;;;;;;2.80;100.00;101581.06;5135217;27;20047;-46
2024/01/24 00:04:43;;;;;;;48.17;23.08;;;;;;;2.75;100.00;101594.25;5135447;27;20062;-47
2024/01/24 00:07:11;;;;;;;46.38;22.80;;;;;;;2.73;100.00;101600.41;5135387;27;20043;-46
2024/01/24 00:09:42;;;;;;;46.88;22.83;;;;;;;2.69;100.00;101612.72;5135069;27;20596;-47
2024/01/24 00:12:11;;;;;;;53.40;23.70;;;;;;;2.57;100.00;101615.44;5134542;27;20141;-45
2024/01/24 00:14:39;;;;;;;48.50;23.08;;;;;;;2.59;100.00;101616.28;5135048;27;20122;-45
2024/01/24 00:17:10;;;;;;;49.03;23.25;;;;;;;2.42;100.00;101621.66;5134822;27;20047;-47
2024/01/24 00:19:41;;;;;;;46.15;22.95;;;;;;;2.42;100.00;101623.44;5134867;27;20043;-49
2024/01/24 00:22:11;;;;;;;46.67;21.75;;;;;;;2.42;100.00;101634.84;5134865;27;20176;-44
2024/01/24 00:24:41;;;;;;;52.53;22.80;;;;;;;2.40;100.00;101635.72;5134907;27;20138;-45
2024/01/24 00:27:11;;;;;;;50.30;24.10;;;;;;;2.37;100.00;101641.88;5135304;27;20043;-45
2024/01/24 00:29:40;;;;;;;45.55;23.33;;;;;;;2.30;100.00;101646.28;5135254;27;20145;-46
2024/01/24 00:32:09;;;;;;;48.22;22.98;;;;;;;2.27;100.00;101632.25;5135397;27;20394;-45
2024/01/24 00:34:37;;;;;;;46.70;22.27;;;;;;;2.36;100.00;101621.69;5135220;27;20541;-44
2024/01/24 00:37:05;;;;;;;50.35;22.88;;;;;;;2.33;100.00;101616.44;5134703;27;20061;-46
2024/01/24 00:39:33;;;;;;;47.65;22.35;;;;;;;2.32;100.00;101613.78;5135479;27;20053;-46
2024/01/24 00:42:08;;;;;;;46.08;22.20;;;;;;;2.32;100.00;101601.53;5134764;27;20039;-46
2024/01/24 00:44:43;;;;;;;43.30;22.02;;;;;;;2.35;100.00;101605.91;5133685;27;20054;-47
2024/01/24 00:47:11;;;;;;;48.33;23.45;;;;;;;2.33;100.00;101612.94;5135022;27;20129;-47
2024/01/24 00:49:40;;;;;;;43.35;21.15;;;;;;;2.30;100.00;101617.31;5134416;27;20051;-45
2024/01/24 00:52:08;;;;;;;43.17;21.27;;;;;;;2.34;100.00;101635.75;5134996;27;20082;-45
2024/01/24 00:54:37;;;;;;;35.50;18.60;;;;;;;2.43;100.00;101627.81;5134753;27;20126;-46
2024/01/24 00:57:06;;;;;;;42.17;19.52;;;;;;;2.50;100.00;101622.47;5134741;27;20051;-46
2024/01/24 00:59:35;;;;;;;38.53;18.48;;;;;;;2.54;100.00;101615.47;5134386;27;20175;-44
2024/01/24 01:02:04;;;;;;;44.60;20.75;;;;;;;2.58;100.00;101609.28;5134281;27;20043;-46
2024/01/24 01:04:32;;;;;;;46.45;21.23;;;;;;;2.63;100.00;101612.78;5133920;27;20040;-45
2024/01/24 01:07:01;;;;;;;48.70;21.67;;;;;;;2.63;100.00;101611.91;5134272;27;20047;-45
2024/01/24 01:09:32;;;;;;;42.10;19.02;;;;;;;2.67;100.00;101608.34;5134256;27;20564;-46
2024/01/24 01:12:01;;;;;;;39.80;19.50;;;;;;;2.55;100.00;101610.19;5134247;27;20051;-46
2024/01/24 01:14:31;;;;;;;44.83;20.55;;;;;;;2.28;100.00;101605.91;5133067;27;20047;-46
2024/01/24 01:17:03;;;;;;;42.22;20.27;;;;;;;2.24;100.00;101585.78;5134241;27;20074;-46
2024/01/24 01:19:31;;;;;;;40.03;20.00;;;;;;;2.31;100.00;101583.97;5132859;27;20050;-45
2024/01/24 01:22:00;;;;;;;46.92;22.75;;;;;;;1.85;100.00;101585.94;5134084;27;20104;-45
2024/01/24 01:24:29;;;;;;;54.75;23.25;;;;;;;1.65;100.00;101581.59;5133260;27;20062;-45
2024/01/24 01:27:01;;;;;;;48.25;22.15;;;;;;;1.75;100.00;101565.78;5133675;27;20071;-45
2024/01/24 01:29:30;;;;;;;44.50;22.80;;;;;;;1.65;100.00;101560.56;5133823;27;20119;-44
2024/01/24 01:31:59;;;;;;;46.88;23.92;;;;;;;1.69;100.00;101562.28;5133456;27;20115;-46
2024/01/24 01:34:28;;;;;;;47.30;23.25;;;;;;;1.69;100.00;101566.69;5133620;27;20437;-45
2024/01/24 01:36:56;;;;;;;45.35;23.52;;;;;;;1.64;100.00;101573.69;5133891;27;20047;-48
2024/01/24 01:39:25;;;;;;;46.85;22.63;;;;;;;1.53;100.00;101564.94;5133387;27;20651;-44
2024/01/24 01:41:53;;;;;;;51.42;23.25;;;;;;;1.61;100.00;101552.66;5133499;27;20047;-44
2024/01/24 01:44:22;;;;;;;50.17;22.80;;;;;;;1.66;100.00;101543.91;5132084;27;20054;-46
2024/01/24 01:46:54;;;;;;;48.30;22.75;;;;;;;1.65;100.00;101534.25;5132747;27;20043;-45
2024/01/24 01:49:26;;;;;;;;;;;;;;;1.71;100.00;101528.97;5132665;27;20045;-45
2024/01/24 01:51:54;;;;;;;51.78;22.33;;;;;;;1.71;100.00;101531.59;5132693;27;19919;-45
2024/01/24 01:54:23;;;;;;;50.00;22.52;;;;;;;1.65;100.00;101534.25;5133045;27;20207;-46
2024/01/24 01:56:52;;;;;;;43.90;21.75;;;;;;;1.66;100.00;101536.00;5132916;27;20067;-45
2024/01/24 01:59:27;;;;;;;44.75;21.25;;;;;;;1.68;100.00;101534.25;5132754;27;20051;-46
2024/01/24 02:02:01;;;;;;;47.05;21.98;;;;;;;1.82;100.00;101539.44;5133261;27;20082;-46
2024/01/24 02:04:29;;;;;;;45.83;22.08;;;;;;;1.80;100.00;101535.06;5132843;27;20444;-46
2024/01/24 02:06:58;;;;;;;44.85;21.48;;;;;;;1.67;100.00;101536.88;5132802;27;20179;-45
2024/01/24 02:09:27;;;;;;;45.88;22.17;;;;;;;1.53;100.00;101529.00;5133060;27;20051;-44
2024/01/24 02:11:56;;;;;;;45.85;22.85;;;;;;;1.63;100.00;101507.06;5132514;27;20506;-45
2024/01/24 02:14:24;;;;;;;43.33;22.08;;;;;;;1.67;100.00;101506.19;5132717;27;20043;-46
2024/01/24 02:16:52;;;;;;;49.15;23.35;;;;;;;1.55;100.00;101510.63;5132889;27;20047;-46
2024/01/24 02:19:22;;;;;;;48.70;23.05;;;;;;;1.60;100.00;101503.56;5133399;27;20130;-45
2024/01/24 02:21:51;;;;;;;45.03;22.15;;;;;;;1.62;100.00;101512.34;5134719;27;20479;-45
2024/01/24 02:24:21;;;;;;;44.78;21.90;;;;;;;1.60;100.00;101508.84;5134262;27;20096;-46
2024/01/24 02:26:52;;;;;;;46.47;21.07;;;;;;;1.68;100.00;101504.44;5133738;27;20407;-45
2024/01/24 02:29:21;;;;;;;49.72;21.73;;;;;;;1.64;100.00;101490.44;5132437;27;20051;-46
2024/01/24 02:31:49;;;;;;;45.65;21.83;;;;;;;1.68;100.00;101497.41;5132452;27;20130;-45
2024/01/24 02:34:20;;;;;;;47.05;22.08;;;;;;;1.68;100.00;101488.66;5132403;27;20411;-47
2024/01/24 02:36:49;;;;;;;47.45;23.20;;;;;;;1.60;100.00;101493.94;5138709;27;20134;-46
2024/01/24 02:39:18;;;;;;;44.72;21.65;;;;;;;1.67;100.00;101506.19;5139642;27;20047;-47
2024/01/24 02:41:48;;;;;;;45.17;21.73;;;;;;;1.60;100.00;101507.09;5139373;27;20047;-46
2024/01/24 02:44:17;;;;;;;49.90;22.65;;;;;;;1.59;100.00;101513.22;5139281;27;20559;-45
2024/01/24 02:46:48;;;;;;;46.13;21.85;;;;;;;1.59;100.00;101500.06;5139161;27;20047;-46
2024/01/24 02:49:17;;;;;;;40.50;19.15;;;;;;;1.70;100.00;101502.66;5138891;27;20050;-45
2024/01/24 02:51:45;;;;;;;39.40;19.95;;;;;;;1.68;100.00;101497.41;5138730;27;20055;-45
2024/01/24 02:54:14;;;;;;;40.83;20.48;;;;;;;1.63;100.00;101493.91;5139396;27;20043;-46
2024/01/24 02:56:42;;;;;;;38.60;18.92;;;;;;;1.48;100.00;101488.72;5139052;27;20131;-46
2024/01/24 02:59:12;;;;;;;43.20;19.92;;;;;;;1.57;100.00;101483.44;5138833;27;20103;-46
2024/01/24 03:01:43;;;;;;;41.75;19.80;;;;;;;1.66;100.00;101483.41;5139120;27;20127;-46
2024/01/24 03:04:17;;;;;;;45.70;20.63;;;;;;;1.61;100.00;101472.00;5138855;27;20051;-46
2024/01/24 03:06:45;;;;;;;48.05;20.17;;;;;;;1.66;100.00;101467.63;5138789;27;20480;-44
2024/01/24 03:09:14;;;;;;;40.72;18.65;;;;;;;1.71;100.00;101455.31;5139206;27;20059;-46
2024/01/24 03:11:42;;;;;;;36.50;19.52;;;;;;;1.72;100.00;101446.53;5138777;27;20051;-44
2024/01/24 03:14:12;;;;;;;42.88;19.80;;;;;;;1.67;100.00;101443.06;5138737;27;20043;-45
2024/01/24 03:16:43;;;;;;;37.60;18.73;;;;;;;1.70;100.00;101440.41;5138892;27;20070;-45
2024/01/24 03:19:11;;;;;;;37.30;18.85;;;;;;;1.75;100.00;101423.75;5139281;27;20096;-46
2024/01/24 03:21:40;;;;;;;36.72;18.50;;;;;;;1.62;100.00;101418.53;5139032;27;20066;-45
2024/01/24 03:24:09;;;;;;;37.92;18.83;;;;;;;1.64;100.00;101424.66;5139745;27;20047;-45
2024/01/24 03:26:37;;;;;;;35.97;18.73;;;;;;;1.63;100.00;101417.63;5139119;27;20065;-45
2024/01/24 03:29:13;;;;;;;38.38;19.13;;;;;;;1.66;100.00;101416.78;5138605;27;20055;-46
2024/01/24 03:31:46;;;;;;;42.17;20.20;;;;;;;1.46;100.00;101411.59;5139610;27;20047;-45
2024/01/24 03:34:16;;;;;;;39.03;19.88;;;;;;;1.49;100.00;101398.44;5139096;27;20483;-45
2024/01/24 03:36:45;;;;;;;39.38;19.80;;;;;;;1.51;100.00;101388.78;5139146;27;20134;-46
2024/01/24 03:39:13;;;;;;;43.95;19.83;;;;;;;1.55;100.00;101385.28;5137443;27;20043;-49
2024/01/24 03:41:42;;;;;;;36.30;17.98;;;;;;;1.57;100.00;101383.50;5138731;27;20143;-46
2024/01/24 03:44:10;;;;;;;41.83;18.63;;;;;;;1.58;100.00;101385.25;5140165;27;20557;-44
2024/01/24 03:46:40;;;;;;;38.55;18.58;;;;;;;1.65;100.00;101391.34;5138387;27;20080;-45
2024/01/24 03:49:08;;;;;;;36.50;17.98;;;;;;;1.70;100.00;101392.19;5136610;27;20407;-46
2024/01/24 03:51:43;;;;;;;39.00;17.45;;;;;;;1.79;100.00;101394.75;5136339;27;20105;-46
2024/01/24 03:54:11;;;;;;;37.03;18.00;;;;;;;1.81;100.00;101394.75;5135358;27;20039;-46
2024/01/24 03:56:40;;;;;;;37.90;16.90;;;;;;;1.86;100.00;101395.59;5133856;27;20126;-44
2024/01/24 03:59:11;;;;;;;32.90;16.73;;;;;;;1.91;100.00;101399.06;5135090;27;20043;-47
2024/01/24 04:01:42;;;;;;;32.60;15.45;;;;;;;1.87;100.00;101397.34;5135554;27;20046;-46
2024/01/24 04:04:16;;;;;;;32.22;15.38;;;;;;;1.90;100.00;101397.31;5135322;27;20047;-45
2024/01/24 04:06:44;;;;;;;32.15;15.25;;;;;;;1.86;100.00;101395.59;5135139;27;20050;-44
2024/01/24 04:09:13;;;;;;;32.28;15.20;;;;;;;1.97;100.00;101388.50;5135529;27;20180;-45
2024/01/24 04:11:41;;;;;;;33.70;15.55;;;;;;;2.03;100.00;101390.22;5135423;27;20059;-43
2024/01/24 04:14:12;;;;;;;28.58;14.38;;;;;;;2.06;100.00;101384.94;5134587;27;20129;-44
2024/01/24 04:16:42;;;;;;;28.85;14.93;;;;;;;2.05;100.00;101389.34;5134732;27;20047;-45
2024/01/24 04:19:13;;;;;;;26.60;13.45;;;;;;;2.11;100.00;101385.78;5135059;27;20377;-44
2024/01/24 04:21:43;;;;;;;26.95;14.32;;;;;;;2.15;100.00;101385.75;5135932;27;20053;-43
2024/01/24 04:24:12;;;;;;;26.95;13.48;;;;;;;2.18;100.00;101383.09;5134417;27;20075;-45
2024/01/24 04:26:42;;;;;;;22.20;13.07;;;;;;;2.19;100.00;101390.09;5135224;27;20059;-45
2024/01/24 04:29:13;;;;;;;24.48;12.15;;;;;;;2.18;100.00;101398.00;5134591;27;20531;-43
2024/01/24 04:31:43;;;;;;;28.95;13.60;;;;;;;2.21;100.00;101393.59;5134393;27;20330;-44
2024/01/24 04:34:16;;;;;;;23.08;12.02;;;;;;;2.32;100.00;101393.53;5134109;27;20047;-46
2024/01/24 04:36:46;;;;;;;25.25;12.18;;;;;;;2.32;100.00;101396.16;5114187;28;20043;-45
2024/01/24 04:39:15;;;;;;;26.60;12.35;;;;;;;2.27;100.00;101403.22;5114810;28;20074;-45
2024/01/24 04:41:45;;;;;;;26.52;12.52;;;;;;;2.31;100.00;101394.38;5114573;28;20416;-45
2024/01/24 04:44:17;;;;;;;24.63;11.85;;;;;;;2.36;100.00;101389.09;5113845;28;20047;-48
2024/01/24 04:46:47;;;;;;;27.77;11.65;;;;;;;2.37;100.00;101388.19;5113934;28;20054;-45
2024/01/24 04:49:16;;;;;;;24.80;11.57;;;;;;;2.39;100.00;101386.44;5113839;28;20062;-46
2024/01/24 04:52:03;;;;;;;23.10;10.20;;;;;;;2.33;100.00;101386.50;5113325;28;20135;-49
2024/01/24 04:54:34;;;;;;;21.75;10.68;;;;;;;2.29;100.00;101381.22;5113538;28;20052;-45
2024/01/24 04:57:03;;;;;;;23.38;10.70;;;;;;;2.29;100.00;101380.38;5113818;28;20057;-46
2024/01/24 04:59:32;;;;;;;20.83;10.93;;;;;;;2.30;100.00;101388.25;5112911;28;20106;-44
2024/01/24 05:02:25;;;;;;;20.55;10.93;;;;;;;2.14;100.00;101372.59;5114867;28;20048;-49
2024/01/24 05:04:56;;;;;;;24.92;11.32;;;;;;;2.22;100.00;101366.41;5113438;28;20044;-43
2024/01/24 05:07:24;;;;;;;24.42;11.68;;;;;;;2.13;100.00;101358.56;5113497;28;20071;-47
2024/01/24 05:09:53;;;;;;;25.77;11.73;;;;;;;2.13;100.00;101352.44;5113847;28;20135;-45
2024/01/24 05:12:23;;;;;;;22.98;11.73;;;;;;;2.10;100.00;101350.69;5113397;28;20139;-45
2024/01/24 05:14:52;;;;;;;23.38;11.30;;;;;;;2.19;100.00;101353.25;5114111;28;20043;-45
2024/01/24 05:17:25;;;;;;;25.42;11.55;;;;;;;2.26;100.00;101364.59;5113697;28;20039;-45
2024/01/24 05:19:54;;;;;;;22.63;10.93;;;;;;;2.16;100.00;101358.53;5146034;27;20075;-46
2024/01/24 05:22:22;;;;;;;26.95;12.25;;;;;;;2.19;100.00;101358.50;5112688;28;20048;-46
2024/01/24 05:24:51;;;;;;;24.15;12.75;;;;;;;2.19;100.00;101353.25;5113121;28;20135;-45
2024/01/24 05:27:19;;;;;;;21.65;11.95;;;;;;;2.33;100.00;101349.63;5113162;28;20047;-46
2024/01/24 05:29:48;;;;;;;27.27;12.50;;;;;;;2.18;100.00;101355.88;5112543;28;20553;-46
2024/01/24 05:32:16;;;;;;;26.83;12.77;;;;;;;2.13;100.00;101348.03;5113204;28;20083;-44
2024/01/24 05:34:46;;;;;;;27.00;12.38;;;;;;;2.22;100.00;101347.97;5112882;28;20047;-44
2024/01/24 05:37:17;;;;;;;25.48;13.15;;;;;;;2.25;100.00;101347.94;5112638;28;20051;-46
2024/01/24 05:39:45;;;;;;;26.80;13.30;;;;;;;2.23;100.00;101360.25;5113161;28;20043;-44
2024/01/24 05:42:14;;;;;;;22.38;12.20;;;;;;;2.32;100.00;101361.94;5113178;28;20537;-46
2024/01/24 05:44:43;;;;;;;23.48;12.10;;;;;;;2.36;100.00;101362.75;5112772;28;20044;-45
2024/01/24 05:47:12;;;;;;;22.10;11.80;;;;;;;2.28;100.00;101350.53;5112856;27;20543;-47
2024/01/24 05:49:41;;;;;;;23.00;12.05;;;;;;;2.30;100.00;101346.13;5113129;28;20051;-47
2024/01/24 05:52:11;;;;;;;21.33;10.40;;;;;;;2.37;100.00;101338.16;5112706;28;20096;-46
2024/01/24 05:54:41;;;;;;;20.67;11.30;;;;;;;2.35;100.00;101326.78;5112939;28;20200;-45
2024/01/24 05:57:13;;;;;;;23.42;10.70;;;;;;;2.29;100.00;101323.31;5113274;28;20541;-45
2024/01/24 05:59:41;;;;;;;19.80;10.38;;;;;;;2.42;100.00;101320.59;5112446;28;20052;-47
2024/01/24 06:02:10;;;;;;;21.08;10.10;;;;;;;2.48;100.00;101328.41;5112802;28;20160;-46
2024/01/24 06:04:41;;;;;;;23.65;11.00;;;;;;;2.50;100.00;101332.75;5112446;28;20052;-45
2024/01/24 06:07:18;;;;;;;23.38;11.05;;;;;;;2.49;100.00;101331.03;5112442;28;20440;-46
2024/01/24 06:09:47;;;;;;;18.05;10.02;;;;;;;2.65;100.00;101320.34;5111848;28;20054;-46
2024/01/24 06:12:16;;;;;;;20.02;9.93;;;;;;;2.77;100.00;101328.09;5112110;28;20039;-46
2024/01/24 06:14:47;;;;;;;18.77;9.32;;;;;;;2.81;100.00;101328.06;5112127;28;20048;-43
2024/01/24 06:17:16;;;;;;;16.60;8.98;;;;;;;2.84;100.00;101322.75;5145023;27;20506;-48
2024/01/24 06:19:44;;;;;;;14.75;8.60;;;;;;;2.91;100.00;101328.84;5112105;28;20446;-44
2024/01/24 06:22:13;;;;;;;17.98;8.68;;;;;;;2.95;100.00;101334.94;5112207;28;20126;-44
2024/01/24 06:24:43;;;;;;;15.15;8.00;;;;;;;2.95;100.00;101329.66;5111716;28;20461;-46
2024/01/24 06:27:12;;;;;;;19.85;8.20;;;;;;;2.91;100.00;101323.56;5111628;28;20047;-45
2024/01/24 06:29:40;;;;;;;17.95;8.25;;;;;;;2.93;100.00;101318.28;5111630;28;20078;-44
2024/01/24 06:32:29;;;;;;;17.67;8.15;;;;;;;2.92;100.00;101308.63;5139092;27;20046;-48
2024/01/24 06:34:58;;;;;;;15.75;8.15;;;;;;;2.81;100.00;101306.13;5111829;28;20056;-46
2024/01/24 06:37:29;;;;;;;15.73;7.97;;;;;;;2.74;100.00;101289.50;5111856;28;20052;-45
2024/01/24 06:39:58;;;;;;;14.25;7.95;;;;;;;2.74;100.00;101278.97;5112350;28;20135;-44
2024/01/24 06:42:30;;;;;;;20.55;8.27;;;;;;;2.76;100.00;101274.53;5111841;28;20062;-44
2024/01/24 06:45:06;;;;;;;17.48;8.32;;;;;;;2.81;100.00;101263.97;5110541;28;20055;-44
2024/01/24 06:47:34;;;;;;;14.13;7.68;;;;;;;2.73;100.00;101256.13;5110713;28;20090;-44
2024/01/24 06:50:03;;;;;;;16.65;7.95;;;;;;;2.77;100.00;101265.72;5111940;28;20097;-43
2024/01/24 06:52:31;;;;;;;17.20;7.95;;;;;;;2.77;100.00;101251.69;5113120;28;20381;-45
2024/01/24 06:55:01;;;;;;;18.23;8.70;;;;;;;2.74;100.00;101247.34;5132320;27;20043;-45
2024/01/24 06:57:30;;;;;;;16.92;8.13;;;;;;;2.84;100.00;101248.09;5132357;27;20492;-45
2024/01/24 07:00:08;;;;;;;18.20;8.15;;;;;;;2.86;100.00;101254.22;5132219;28;20035;-44
2024/01/24 07:02:37;;;;;;;15.60;7.95;;;;;;;2.84;100.00;101233.16;5132259;27;20099;-45
2024/01/24 07:05:06;;;;;;;17.52;8.48;;;;;;;2.83;100.00;101228.78;5132268;27;20051;-45
2024/01/24 07:07:34;;;;;;;16.55;7.70;;;;;;;2.75;100.00;101238.53;5132354;27;20092;-45
2024/01/24 07:10:10;;;;;;;17.83;8.65;;;;;;;2.60;100.00;101225.53;5131866;27;20376;-43
2024/01/24 07:12:44;;;;;;;13.00;7.53;;;;;;;2.69;100.00;101222.81;5132190;27;20202;-44
2024/01/24 07:15:15;;;;;;;17.58;8.32;;;;;;;2.76;100.00;101224.47;5132059;27;20170;-45
2024/01/24 07:17:43;;;;;;;22.90;10.43;;;;;;;2.78;100.00;101222.69;5132390;27;20071;-44
2024/01/24 07:20:12;;;;;;;16.98;8.57;;;;;;;2.70;100.00;101203.50;5132670;27;20055;-44
2024/01/24 07:22:41;;;;;;;23.35;9.65;;;;;;;2.80;100.00;101217.41;5133544;27;20700;-45
2024/01/24 07:25:11;;;;;;;17.60;8.70;;;;;;;2.83;100.00;101212.97;5135212;27;20050;-46
2024/01/24 07:27:39;;;;;;;17.05;8.38;;;;;;;2.88;100.00;101207.63;5133203;27;20134;-45
2024/01/24 07:30:08;;;;;;;14.98;8.63;;;;;;;2.87;100.00;101209.38;5135547;27;20492;-44
2024/01/24 07:32:39;;;;;;;18.10;8.90;;;;;;;2.98;100.00;101208.38;5135270;27;20054;-45
2024/01/24 07:35:10;;;;;;;14.45;8.65;;;;;;;2.98;100.00;101203.97;5135391;27;20043;-44
2024/01/24 07:37:37;;;;;;;16.92;9.60;;;;;;;2.96;100.00;101194.34;5135309;27;20062;-45
2024/01/24 07:40:10;;;;;;;26.00;10.50;;;;;;;2.99;100.00;101210.13;5135537;27;20126;-45
2024/01/24 07:42:43;;;;;;;15.63;9.63;;;;;;;3.12;100.00;101196.75;5135581;27;20377;-45
2024/01/24 07:45:12;;;;;;;18.73;10.07;;;;;;;3.15;100.00;101194.06;5134265;27;20385;-45
2024/01/24 07:47:40;;;;;;;18.67;9.90;;;;;;;3.13;100.00;101198.50;5135671;27;20086;-45
2024/01/24 07:50:11;;;;;;;20.48;9.93;;;;;;;3.13;100.00;101192.34;5135560;27;20600;-45
2024/01/24 07:52:40;;;;;;;24.17;11.10;;;;;;;3.01;100.00;101192.53;5135379;27;20118;-44
2024/01/24 07:55:11;;;;;;;20.70;10.13;;;;;;;3.05;100.00;101188.94;5136451;27;20043;-46
2024/01/24 07:57:45;;;;;;;26.38;11.73;;;;;;;3.09;100.00;101191.53;5135240;27;20096;-43
2024/01/24 08:00:16;;;;;;;19.80;10.45;;;;;;;3.17;100.00;101179.09;5134921;27;20417;-45
2024/01/24 08:02:46;;;;;;;22.38;10.88;;;;;;;3.15;100.00;101180.00;5135224;27;20039;-45
2024/01/24 08:05:19;;;;;;;24.27;11.35;;;;;;;3.05;100.00;101173.13;5135703;27;20050;-45
2024/01/24 08:07:51;;;;;;;21.27;11.50;;;;;;;2.90;100.00;101168.09;5135060;27;20122;-47
2024/01/24 08:10:23;;;;;;;19.40;11.35;;;;;;;2.91;100.00;101160.16;5134638;27;20054;-60
2024/01/24 08:12:53;;;;;;;23.30;12.10;;;;;;;3.08;100.00;101175.72;5134362;27;20469;-51
2024/01/24 08:15:21;;;;;;;22.85;11.82;;;;;;;3.14;100.00;101199.38;5134365;27;20047;-43
2024/01/24 08:17:50;;;;;;;26.80;12.35;;;;;;;3.12;100.00;101186.22;5134506;27;20047;-48
2024/01/24 08:20:19;;;;;;;23.70;12.25;;;;;;;3.23;100.00;101172.88;5134852;27;20149;-46
2024/01/24 08:22:51;;;;;;;22.67;11.97;;;;;;;3.19;100.00;101175.59;5134782;27;20043;-46
2024/01/24 08:25:19;;;;;;;22.92;12.20;;;;;;;3.07;100.00;101163.44;5133351;27;20471;-48
2024/01/24 08:27:48;;;;;;;19.50;11.23;;;;;;;3.07;100.00;101166.94;5134727;27;20043;-47
2024/01/24 08:30:18;;;;;;;22.30;12.02;;;;;;;3.15;100.00;101185.28;5134370;27;20051;-47
2024/01/24 08:32:47;;;;;;;24.42;12.18;;;;;;;3.20;100.00;101178.19;5133849;27;20047;-47
2024/01/24 08:35:16;;;;;;;23.08;12.18;;;;;;;3.16;100.00;101174.72;5134383;27;20053;-47
2024/01/24 08:37:44;;;;;;;24.25;11.77;;;;;;;3.30;100.00;101166.59;5134428;27;20043;-45
2024/01/24 08:40:17;;;;;;;26.65;13.20;;;;;;;3.32;100.00;101156.03;5133922;27;20055;-46
2024/01/24 08:42:45;;;;;;;25.23;12.10;;;;;;;3.23;100.00;101150.91;5134554;27;20043;-45
2024/01/24 08:45:14;;;;;;;23.67;13.35;;;;;;;3.24;100.00;101158.78;5135124;27;20129;-45
2024/01/24 08:47:46;;;;;;;25.15;13.02;;;;;;;3.42;100.00;101152.34;5134644;27;20043;-46
2024/01/24 08:50:15;;;;;;;21.65;12.20;;;;;;;3.39;100.00;101148.00;5134255;27;20088;-46
2024/01/24 08:52:43;;;;;;;27.40;13.18;;;;;;;3.40;100.00;101149.75;5134324;27;20051;-46
2024/01/24 08:55:16;;;;;;;25.40;13.07;;;;;;;3.35;100.00;101146.28;5133963;27;20054;-44
2024/01/24 08:57:49;;;;;;;28.92;13.25;;;;;;;3.33;100.00;101137.53;5134383;27;20050;-47
2024/01/24 09:00:19;;;;;;;25.42;12.75;;;;;;;3.33;100.00;101113.81;5133916;27;20428;-45
2024/01/24 09:02:49;;;;;;;23.55;13.43;;;;;;;3.35;100.00;101114.63;5134034;27;20078;-48
2024/01/24 09:05:20;;;;;;;25.42;13.73;;;;;;;3.31;100.00;101128.78;5134132;27;20062;-45
2024/01/24 09:07:52;;;;;;;26.05;13.43;;;;;;;3.33;100.00;101127.00;5133937;27;20047;-46
2024/01/24 09:10:23;;;;;;;25.08;13.93;;;;;;;3.34;100.00;101120.81;5133952;27;20050;-46
2024/01/24 09:12:52;;;;;;;27.35;14.40;;;;;;;3.31;100.00;101102.41;5133977;27;20154;-45
2024/01/24 09:15:23;;;;;;;26.55;14.68;;;;;;;3.35;100.00;101093.53;5133606;27;20051;-46
2024/01/24 09:17:54;;;;;;;25.30;15.13;;;;;;;3.32;100.00;101098.88;5133752;27;20070;-46
2024/01/24 09:20:22;;;;;;;29.30;15.32;;;;;;;3.40;100.00;101097.00;5133497;27;20081;-45
2024/01/24 09:22:51;;;;;;;31.05;15.98;;;;;;;3.30;100.00;101090.13;5133470;27;20043;-45
2024/01/24 09:25:21;;;;;;;28.10;15.13;;;;;;;3.29;100.00;101087.53;5133404;27;20055;-45
2024/01/24 09:27:50;;;;;;;31.48;15.40;;;;;;;3.30;100.00;101079.59;5133480;27;20095;-47
2024/01/24 09:30:18;;;;;;;27.73;15.40;;;;;;;3.37;100.00;101069.78;5133199;27;20055;-48
2024/01/24 09:32:47;;;;;;;27.50;14.90;;;;;;;3.35;100.00;101069.81;5133391;27;20043;-45
2024/01/24 09:35:20;;;;;;;27.52;15.85;;;;;;;3.38;100.00;101059.22;5133981;27;20407;-45
2024/01/24 09:37:49;;;;;;;29.60;15.32;;;;;;;3.39;100.00;101057.47;5131940;27;20051;-45
2024/01/24 09:40:18;;;;;;;27.20;14.35;;;;;;;3.41;100.00;101075.00;5132570;27;20050;-45
2024/01/24 09:42:47;;;;;;;26.58;14.65;;;;;;;3.36;100.00;101063.63;5132062;27;20047;-46
2024/01/24 09:45:17;;;;;;;30.40;15.10;;;;;;;3.26;100.00;101035.69;5132510;27;20043;-46
2024/01/24 09:47:50;;;;;;;29.20;15.50;;;;;;;3.28;100.00;101033.91;5132913;27;20408;-45
2024/01/24 09:50:20;;;;;;;31.70;15.35;;;;;;;3.37;100.00;101041.63;5133336;27;20046;-48
2024/01/24 09:52:49;;;;;;;30.38;15.50;;;;;;;3.43;100.00;101038.03;5133120;27;20451;-46
2024/01/24 09:55:24;;;;;;;28.58;15.75;;;;;;;3.45;100.00;101033.59;5133063;27;20055;-47
2024/01/24 09:57:56;;;;;;;28.60;14.80;;;;;;;3.51;100.00;101007.13;5133124;27;20055;-47
2024/01/24 10:00:25;;;;;;;26.55;15.27;;;;;;;3.37;100.00;101004.72;5133374;27;20074;-48
2024/01/24 10:02:55;;;;;;;27.70;14.70;;;;;;;3.36;100.00;100999.47;5133644;27;20049;-52
2024/01/24 10:05:34;;;;;;;23.27;13.73;;;;;;;3.50;100.00;100975.50;5133856;27;20047;-49
2024/01/24 10:08:05;;;;;;;25.17;12.88;;;;;;;3.59;100.00;100967.41;5133353;27;20058;-48
2024/01/24 10:10:33;;;;;;;28.17;12.85;;;;;;;3.76;100.00;100967.03;5132983;27;20135;-50
2024/01/24 10:13:04;;;;;;;22.80;12.82;;;;;;;3.74;100.00;100964.44;5133635;27;20047;-48
2024/01/24 10:15:32;;;;;;;23.75;12.10;;;;;;;3.73;100.00;100957.41;5134234;27;20096;-48
2024/01/24 10:18:02;;;;;;;25.75;11.73;;;;;;;3.72;100.00;100946.00;5133841;27;20100;-48
2024/01/24 10:20:32;;;;;;;21.60;11.98;;;;;;;3.74;100.00;100927.50;5133200;27;20122;-50
2024/01/24 10:23:09;;;;;;;22.85;11.80;;;;;;;3.78;100.00;100918.63;5132985;27;20047;-51
2024/01/24 10:25:41;;;;;;;23.50;11.32;;;;;;;3.91;100.00;100920.06;5133641;27;20148;-50
2024/01/24 10:28:14;;;;;;;20.05;11.23;;;;;;;3.98;100.00;100908.50;5133347;27;20046;-49
2024/01/24 10:30:43;;;;;;;22.90;9.90;;;;;;;4.92;100.00;100900.88;5132841;27;20047;-46
2024/01/24 10:33:18;;;;;;;17.98;10.32;;;;;;;6.00;100.00;100896.03;5132662;27;20058;-50
2024/01/24 10:35:48;;;;;;;18.73;9.93;;;;;;;6.14;100.00;100906.16;5132316;27;20100;-51
2024/01/24 10:38:23;;;;;;;20.38;10.50;;;;;;;6.16;100.00;100911.41;5132606;27;20043;-53
2024/01/24 10:40:58;;;;;;;14.45;7.72;;;;;;;6.37;100.00;100909.84;5132794;27;20091;-49
2024/01/24 10:43:32;;;;;;;18.05;8.98;;;;;;;7.18;100.00;100908.84;5132777;27;20043;-47
2024/01/24 10:46:01;;;;;;;18.02;7.97;;;;;;;8.09;100.00;100894.78;5132698;27;20043;-47
2024/01/24 10:48:31;;;;;;;19.02;9.90;;;;;;;8.32;100.00;100884.13;5131528;27;20047;-48
2024/01/24 10:51:04;;;;;;;18.33;9.18;;;;;;;8.59;100.00;100880.38;5132569;27;20138;-48
2024/01/24 10:53:35;;;;;;;16.75;8.45;;;;;;;8.69;100.00;100869.34;5133349;27;20047;-48
2024/01/24 10:56:06;;;;;;;16.65;8.70;;;;;;;9.24;100.00;100869.56;5132757;27;20088;-50
2024/01/24 10:58:35;;;;;;;16.30;9.55;;;;;;;8.59;100.00;100852.91;5136929;27;20042;-50
2024/01/24 11:01:04;;;;;;;19.35;10.05;;;;;;;8.20;100.00;100815.50;5138299;27;20057;-49
2024/01/24 11:03:33;;;;;;;17.50;9.13;;;;;;;7.94;100.00;100812.13;5138449;27;20107;-49
2024/01/24 11:06:13;;;;;;;17.92;9.35;;;;;;;7.65;100.00;100818.63;5137703;27;20047;-49
2024/01/24 11:08:48;;;;;;;16.65;9.63;;;;;;;7.51;100.00;100801.47;5137679;27;20100;-48
2024/01/24 11:11:22;;;;;;;16.40;8.68;;;;;;;6.91;100.00;100785.16;5135610;27;20504;-48
2024/01/24 11:13:52;;;;;;;17.75;9.90;;;;;;;6.36;100.00;100780.94;5136981;27;20400;-49
2024/01/24 11:16:30;;;;;;;18.05;9.45;;;;;;;5.94;100.00;100776.19;5136195;27;20131;-49
2024/01/24 11:19:20;;;;;;;18.17;10.23;;;;;;;5.78;100.00;100798.72;5136427;27;20051;-47
2024/01/24 11:21:55;;;;;;;18.80;9.73;;;;;;;5.58;100.00;100784.34;5136237;27;20043;-48
2024/01/24 11:24:52;;;;;;;20.80;10.18;;;;;;;5.57;100.00;100763.22;5136470;27;20047;-48
2024/01/24 11:27:32;;;;;;;18.52;9.88;;;;;;;5.47;100.00;100768.78;5129771;27;20046;-48